Time;durP1;ratioP1;P1;durP2;ratioP2;P2;SDS_P1;SDS_P2;PMS_P1;PMS_P2;Temp;Humidity;BMP_temperature;BMP_pressure;BME280_temperature;BME280_humidity;BME280_pressure;Samples;Min_cycle;Max_cycle;Signal;HPM_P1;HPM_P2
2023/10/22 00:02:11;;;;;;;88.10;25.90;;;;;;;;;;4939004;28;20417;-58
2023/10/22 00:04:39;;;;;;;122.30;25.95;;;;;;;;;;4941357;28;20457;-58
2023/10/22 00:07:06;;;;;;;85.47;23.23;;;;;;;;;;4946122;29;20051;-58
2023/10/22 00:09:33;;;;;;;69.95;21.60;;;;;;;;;;4942108;29;20047;-57
2023/10/22 00:12:00;;;;;;;58.28;20.38;;;;;;;;;;4943578;28;20043;-56
2023/10/22 00:14:26;;;;;;;58.85;19.80;;;;;;;;;;4941709;28;20039;-58
2023/10/22 00:16:53;;;;;;;53.72;19.88;;;;;;;;;;4941713;29;20047;-58
2023/10/22 00:19:20;;;;;;;58.92;20.75;;;;;;;;;;4945063;29;20044;-57
2023/10/22 00:21:47;;;;;;;49.63;19.33;;;;;;;;;;4943701;29;20456;-58
2023/10/22 00:24:13;;;;;;;40.10;17.90;;;;;;;;;;4941583;29;20047;-58
2023/10/22 00:26:40;;;;;;;55.78;18.33;;;;;;;;;;4927672;29;20043;-56
2023/10/22 00:29:06;;;;;;;42.58;18.30;;;;;;;;;;4940840;28;20043;-58
2023/10/22 00:31:33;;;;;;;80.63;19.50;;;;;;;;;;4925496;29;20051;-58
2023/10/22 00:34:00;;;;;;;44.95;19.52;;;;;;;;;;4944134;29;20055;-58
2023/10/22 00:36:27;;;;;;;46.35;18.85;;;;;;;;;;4944597;29;20086;-58
2023/10/22 00:38:53;;;;;;;48.42;19.50;;;;;;;;;;4942305;28;20106;-58
2023/10/22 00:41:20;;;;;;;49.85;19.75;;;;;;;;;;4945259;28;20042;-58
2023/10/22 00:43:47;;;;;;;72.68;18.60;;;;;;;;;;4941199;28;20399;-59
2023/10/22 00:46:19;;;;;;;40.25;17.40;;;;;;;;;;4921135;29;20052;-59
2023/10/22 00:48:46;;;;;;;38.92;17.52;;;;;;;;;;4931346;29;20047;-56
2023/10/22 00:51:13;;;;;;;46.05;17.75;;;;;;;;;;4939355;28;20103;-57
2023/10/22 00:53:43;;;;;;;54.30;19.23;;;;;;;;;;4941050;28;20047;-55
2023/10/22 00:56:11;;;;;;;47.72;18.65;;;;;;;;;;4923999;29;20122;-56
2023/10/22 00:58:39;;;;;;;83.47;20.92;;;;;;;;;;4923961;28;20055;-57
2023/10/22 01:01:06;;;;;;;38.28;17.95;;;;;;;;;;4945556;29;20522;-58
2023/10/22 01:03:35;;;;;;;46.50;18.35;;;;;;;;;;4945340;28;20134;-58
2023/10/22 01:06:06;;;;;;;42.65;17.58;;;;;;;;;;4929668;29;20079;-57
2023/10/22 01:08:33;;;;;;;45.58;18.00;;;;;;;;;;4945037;28;20047;-59
2023/10/22 01:11:07;;;;;;;46.55;19.38;;;;;;;;;;4926868;29;20052;-58
2023/10/22 01:13:34;;;;;;;76.13;19.60;;;;;;;;;;4944563;28;20566;-56
2023/10/22 01:16:01;;;;;;;43.35;17.85;;;;;;;;;;4944608;29;20052;-59
2023/10/22 01:18:28;;;;;;;51.55;19.73;;;;;;;;;;4927258;29;20048;-58
2023/10/22 01:20:55;;;;;;;50.65;19.13;;;;;;;;;;4925897;29;20048;-58
2023/10/22 01:23:22;;;;;;;44.70;18.92;;;;;;;;;;4944341;28;20397;-58
2023/10/22 01:25:50;;;;;;;53.97;16.83;;;;;;;;;;4935429;28;20075;-59
2023/10/22 01:28:16;;;;;;;40.83;16.85;;;;;;;;;;4945079;29;20140;-58
2023/10/22 01:30:43;;;;;;;49.63;19.65;;;;;;;;;;4943690;28;20039;-58
2023/10/22 01:33:10;;;;;;;58.60;20.80;;;;;;;;;;4924420;29;20044;-59
2023/10/22 01:35:37;;;;;;;62.28;20.27;;;;;;;;;;4930777;29;20457;-59
2023/10/22 01:38:04;;;;;;;80.45;20.30;;;;;;;;;;4929707;29;20043;-58
2023/10/22 01:40:30;;;;;;;80.00;21.42;;;;;;;;;;4947465;28;20047;-58
2023/10/22 01:42:57;;;;;;;83.93;21.63;;;;;;;;;;4942342;29;20051;-58
2023/10/22 01:45:24;;;;;;;75.80;21.65;;;;;;;;;;4943595;28;20055;-58
2023/10/22 01:47:50;;;;;;;64.65;20.75;;;;;;;;;;4926150;29;20102;-58
2023/10/22 01:50:18;;;;;;;80.70;20.85;;;;;;;;;;4943979;29;20047;-58
2023/10/22 01:52:44;;;;;;;127.63;24.23;;;;;;;;;;4943580;29;20098;-56
2023/10/22 01:55:11;;;;;;;67.47;22.23;;;;;;;;;;4943016;29;20059;-58
2023/10/22 01:57:38;;;;;;;77.20;21.75;;;;;;;;;;4928539;29;20394;-63
2023/10/22 02:00:05;;;;;;;76.72;23.77;;;;;;;;;;4930414;29;20051;-58
2023/10/22 02:02:40;;;;;;;80.50;22.90;;;;;;;;;;4944806;29;20094;-59
2023/10/22 02:05:07;;;;;;;72.50;21.80;;;;;;;;;;4913260;29;20050;-58
2023/10/22 02:07:36;;;;;;;81.88;21.40;;;;;;;;;;4947826;28;20052;-58
2023/10/22 02:10:02;;;;;;;81.20;21.95;;;;;;;;;;4931059;29;20393;-58
2023/10/22 02:12:29;;;;;;;74.68;23.33;;;;;;;;;;4944964;29;20095;-58
2023/10/22 02:14:56;;;;;;;55.28;18.92;;;;;;;;;;4938221;29;20047;-58
2023/10/22 02:17:23;;;;;;;88.53;22.73;;;;;;;;;;4945606;28;20053;-57
2023/10/22 02:19:49;;;;;;;72.88;19.10;;;;;;;;;;4933519;28;20484;-59
2023/10/22 02:22:16;;;;;;;53.15;18.42;;;;;;;;;;4938240;29;20047;-58
2023/10/22 02:24:43;;;;;;;60.28;18.65;;;;;;;;;;4931511;29;20055;-58
2023/10/22 02:27:10;;;;;;;49.75;16.75;;;;;;;;;;4949178;28;20043;-57
2023/10/22 02:29:36;;;;;;;60.40;18.90;;;;;;;;;;4947686;28;20082;-56
2023/10/22 02:32:04;;;;;;;65.07;18.92;;;;;;;;;;4931012;29;20044;-58
2023/10/22 02:34:31;;;;;;;93.72;21.80;;;;;;;;;;4947181;29;20482;-59
2023/10/22 02:36:57;;;;;;;52.55;18.35;;;;;;;;;;4934867;29;20058;-59
2023/10/22 02:39:24;;;;;;;61.95;18.85;;;;;;;;;;4936664;29;20079;-58
2023/10/22 02:41:51;;;;;;;60.22;20.20;;;;;;;;;;4936445;29;20473;-59
2023/10/22 02:44:20;;;;;;;75.47;20.35;;;;;;;;;;4946596;28;20099;-57
2023/10/22 02:46:52;;;;;;;77.40;19.52;;;;;;;;;;4946809;28;20049;-58
2023/10/22 02:49:27;;;;;;;53.03;19.42;;;;;;;;;;4949932;29;20098;-58
2023/10/22 02:51:54;;;;;;;56.33;19.08;;;;;;;;;;4949705;29;20043;-59
2023/10/22 02:54:21;;;;;;;70.10;21.20;;;;;;;;;;4945663;28;20059;-56
2023/10/22 02:56:48;;;;;;;74.68;23.10;;;;;;;;;;4947383;28;20040;-58
2023/10/22 02:59:14;;;;;;;51.65;19.83;;;;;;;;;;4947512;28;20123;-59
2023/10/22 03:01:41;;;;;;;116.03;23.73;;;;;;;;;;4932881;28;20138;-60
2023/10/22 03:04:07;;;;;;;59.35;19.83;;;;;;;;;;4949086;29;20075;-58
2023/10/22 03:06:34;;;;;;;65.30;21.17;;;;;;;;;;4944852;29;20085;-58
2023/10/22 03:09:01;;;;;;;58.55;18.20;;;;;;;;;;4928638;29;20059;-59
2023/10/22 03:11:28;;;;;;;50.05;17.08;;;;;;;;;;4946667;28;20042;-58
2023/10/22 03:13:54;;;;;;;37.30;14.02;;;;;;;;;;4930304;29;20051;-58
2023/10/22 03:16:21;;;;;;;44.13;14.10;;;;;;;;;;4948043;29;20052;-58
2023/10/22 03:18:48;;;;;;;40.42;13.40;;;;;;;;;;4946791;29;20110;-59
2023/10/22 03:21:16;;;;;;;32.10;12.70;;;;;;;;;;4928056;29;20044;-59
2023/10/22 03:23:44;;;;;;;36.92;12.93;;;;;;;;;;4931107;29;20048;-58
2023/10/22 03:26:14;;;;;;;49.60;13.85;;;;;;;;;;4947192;29;20050;-58
2023/10/22 03:28:41;;;;;;;66.75;14.43;;;;;;;;;;4937653;29;20046;-58
2023/10/22 03:31:07;;;;;;;33.47;12.60;;;;;;;;;;4947293;29;20130;-58
2023/10/22 03:33:34;;;;;;;36.35;12.57;;;;;;;;;;4933637;29;20051;-58
2023/10/22 03:36:03;;;;;;;36.58;12.98;;;;;;;;;;4942437;28;20132;-57
2023/10/22 03:38:31;;;;;;;36.40;12.50;;;;;;;;;;4944232;28;20553;-58
2023/10/22 03:41:02;;;;;;;43.22;11.23;;;;;;;;;;4934650;29;20039;-58
2023/10/22 03:43:29;;;;;;;31.15;10.73;;;;;;;;;;4948403;29;20044;-61
2023/10/22 03:45:56;;;;;;;43.40;10.73;;;;;;;;;;4946053;29;20062;-58
2023/10/22 03:48:24;;;;;;;37.50;10.45;;;;;;;;;;4941424;28;20155;-58
2023/10/22 03:50:51;;;;;;;26.52;10.52;;;;;;;;;;4932275;29;20047;-57
2023/10/22 03:53:18;;;;;;;33.90;10.18;;;;;;;;;;4941644;28;20056;-58
2023/10/22 03:55:44;;;;;;;72.18;12.07;;;;;;;;;;4942352;28;20465;-59
2023/10/22 03:58:11;;;;;;;27.98;9.90;;;;;;;;;;4926798;29;20048;-56
2023/10/22 04:00:38;;;;;;;25.38;9.73;;;;;;;;;;4941322;28;20614;-56
2023/10/22 04:03:05;;;;;;;34.58;10.63;;;;;;;;;;4927382;29;20394;-57
2023/10/22 04:05:32;;;;;;;30.08;10.77;;;;;;;;;;4941582;28;20467;-58
2023/10/22 04:07:59;;;;;;;47.05;13.10;;;;;;;;;;4909765;29;20044;-55
2023/10/22 04:10:26;;;;;;;33.28;11.35;;;;;;;;;;4944410;29;20052;-56
2023/10/22 04:12:52;;;;;;;29.27;10.10;;;;;;;;;;4941166;28;20051;-55
2023/10/22 04:15:19;;;;;;;41.05;8.20;;;;;;;;;;4922870;29;20062;-58
2023/10/22 04:17:48;;;;;;;27.58;8.63;;;;;;;;;;4941226;28;20048;-61
2023/10/22 04:20:16;;;;;;;38.17;9.73;;;;;;;;;;4944148;28;20455;-58
2023/10/22 04:22:43;;;;;;;79.78;11.30;;;;;;;;;;4960832;28;20043;-59
2023/10/22 04:25:10;;;;;;;27.33;8.07;;;;;;;;;;4959871;28;20078;-58
2023/10/22 04:27:37;;;;;;;29.10;7.40;;;;;;;;;;4943077;28;20042;-61
2023/10/22 04:30:07;;;;;;;40.13;8.57;;;;;;;;;;4963674;28;20416;-58
2023/10/22 04:32:34;;;;;;;28.08;8.07;;;;;;;;;;4961833;28;20074;-58
2023/10/22 04:35:01;;;;;;;39.30;8.77;;;;;;;;;;4962751;28;20047;-58
2023/10/22 04:37:28;;;;;;;45.78;9.57;;;;;;;;;;4951652;28;20138;-57
2023/10/22 04:39:57;;;;;;;25.73;8.35;;;;;;;;;;4967709;28;20464;-57
2023/10/22 04:42:27;;;;;;;27.25;8.40;;;;;;;;;;4966653;28;20044;-57
2023/10/22 04:44:53;;;;;;;25.52;8.77;;;;;;;;;;4966477;28;20063;-57
2023/10/22 04:47:21;;;;;;;40.75;9.15;;;;;;;;;;4963901;28;20050;-57
2023/10/22 04:49:50;;;;;;;77.47;9.52;;;;;;;;;;4946919;28;20130;-56
2023/10/22 04:52:30;;;;;;;21.85;5.28;;;;;;;;;;4966793;28;20129;-57
2023/10/22 04:54:58;;;;;;;24.67;5.97;;;;;;;;;;4965887;28;20046;-57
2023/10/22 04:57:26;;;;;;;25.23;5.88;;;;;;;;;;4962985;28;20064;-58
2023/10/22 04:59:53;;;;;;;23.92;4.85;;;;;;;;;;4951348;28;20054;-55
2023/10/22 05:02:20;;;;;;;19.02;4.78;;;;;;;;;;4964834;28;20051;-58
2023/10/22 05:04:49;;;;;;;73.95;8.10;;;;;;;;;;4963887;28;20039;-56
2023/10/22 05:07:16;;;;;;;24.80;5.45;;;;;;;;;;4965863;28;20051;-56
2023/10/22 05:09:44;;;;;;;32.15;4.95;;;;;;;;;;4962984;28;20109;-56
2023/10/22 05:12:11;;;;;;;9.57;3.85;;;;;;;;;;4951085;28;20058;-58
2023/10/22 05:14:37;;;;;;;23.23;4.88;;;;;;;;;;4957583;28;20043;-58
2023/10/22 05:17:05;;;;;;;17.35;4.43;;;;;;;;;;4963336;28;20047;-56
2023/10/22 05:19:32;;;;;;;22.80;4.65;;;;;;;;;;4964112;28;20047;-57
2023/10/22 05:21:59;;;;;;;16.88;4.38;;;;;;;;;;4964475;28;20061;-58
2023/10/22 05:24:26;;;;;;;21.65;5.30;;;;;;;;;;4964322;28;20065;-57
2023/10/22 05:26:53;;;;;;;27.13;5.80;;;;;;;;;;4960404;28;20488;-58
2023/10/22 05:29:20;;;;;;;23.65;5.00;;;;;;;;;;4967252;28;20047;-59
2023/10/22 05:31:46;;;;;;;66.05;7.10;;;;;;;;;;4946565;28;20070;-56
2023/10/22 05:34:13;;;;;;;18.90;5.30;;;;;;;;;;4967931;28;20042;-57
2023/10/22 05:36:40;;;;;;;23.77;6.22;;;;;;;;;;4964032;28;20511;-56
2023/10/22 05:39:07;;;;;;;21.30;5.78;;;;;;;;;;4952656;28;20046;-56
2023/10/22 05:41:33;;;;;;;21.05;5.32;;;;;;;;;;4966104;28;20125;-58
2023/10/22 05:44:02;;;;;;;34.03;6.07;;;;;;;;;;4964303;28;20041;-56
2023/10/22 05:46:30;;;;;;;21.30;5.25;;;;;;;;;;4963477;28;20047;-57
2023/10/22 05:48:57;;;;;;;21.02;4.85;;;;;;;;;;4966625;28;20134;-56
2023/10/22 05:51:23;;;;;;;17.98;5.05;;;;;;;;;;4961572;28;20492;-58
2023/10/22 05:53:50;;;;;;;23.30;5.18;;;;;;;;;;4964727;28;20493;-60
2023/10/22 05:56:17;;;;;;;30.02;5.28;;;;;;;;;;4961750;28;20556;-60
2023/10/22 05:58:44;;;;;;;52.90;7.00;;;;;;;;;;4962958;28;20039;-57
2023/10/22 06:01:11;;;;;;;22.48;5.63;;;;;;;;;;4963412;28;20500;-57
2023/10/22 06:03:38;;;;;;;17.67;4.35;;;;;;;;;;4963372;28;20492;-61
2023/10/22 06:06:05;;;;;;;12.43;4.07;;;;;;;;;;4960583;28;20673;-58
2023/10/22 06:08:31;;;;;;;21.50;4.15;;;;;;;;;;4962938;28;20039;-60
2023/10/22 06:10:58;;;;;;;23.05;4.28;;;;;;;;;;4962658;28;20131;-57
2023/10/22 06:13:25;;;;;;;17.38;4.25;;;;;;;;;;4963819;28;20062;-59
2023/10/22 06:15:55;;;;;;;19.42;4.75;;;;;;;;;;4961251;28;20125;-58
2023/10/22 06:18:21;;;;;;;21.73;6.15;;;;;;;;;;4960967;28;20051;-58
2023/10/22 06:20:48;;;;;;;33.28;4.85;;;;;;;;;;4960757;28;20450;-56
2023/10/22 06:23:15;;;;;;;24.88;4.70;;;;;;;;;;4962590;28;20129;-56
2023/10/22 06:25:42;;;;;;;41.80;5.20;;;;;;;;;;4945021;28;20054;-57
2023/10/22 06:28:09;;;;;;;23.55;4.60;;;;;;;;;;4961111;28;20039;-56
2023/10/22 06:30:35;;;;;;;32.88;4.80;;;;;;;;;;4948303;28;20051;-57
2023/10/22 06:33:03;;;;;;;20.60;4.53;;;;;;;;;;4964833;28;20042;-55
2023/10/22 06:35:30;;;;;;;25.20;4.18;;;;;;;;;;4962179;28;20484;-57
2023/10/22 06:37:57;;;;;;;29.40;4.38;;;;;;;;;;4963634;28;20480;-58
2023/10/22 06:40:24;;;;;;;26.23;4.88;;;;;;;;;;4969328;28;20093;-60
2023/10/22 06:42:51;;;;;;;15.13;3.97;;;;;;;;;;4964159;28;20055;-59
2023/10/22 06:45:19;;;;;;;18.65;4.18;;;;;;;;;;4946056;28;20063;-57
2023/10/22 06:47:46;;;;;;;23.85;4.30;;;;;;;;;;4966459;28;20042;-58
2023/10/22 06:50:13;;;;;;;17.33;4.10;;;;;;;;;;4961803;28;20044;-59
2023/10/22 06:52:43;;;;;;;57.05;6.32;;;;;;;;;;4967955;28;20583;-57
2023/10/22 06:55:10;;;;;;;17.17;4.07;;;;;;;;;;4962598;28;20050;-57
2023/10/22 06:57:38;;;;;;;22.50;5.55;;;;;;;;;;4962606;28;20047;-60
2023/10/22 07:00:07;;;;;;;22.30;5.60;;;;;;;;;;4960207;28;20069;-56
2023/10/22 07:02:34;;;;;;;34.20;5.18;;;;;;;;;;4961597;28;20042;-55
2023/10/22 07:05:02;;;;;;;31.25;5.18;;;;;;;;;;4960381;28;20054;-57
2023/10/22 07:07:28;;;;;;;50.92;5.45;;;;;;;;;;4961908;28;20481;-53
2023/10/22 07:09:55;;;;;;;28.08;4.93;;;;;;;;;;4960200;28;20042;-55
2023/10/22 07:12:23;;;;;;;18.40;4.43;;;;;;;;;;4959870;28;20075;-59
2023/10/22 07:14:50;;;;;;;57.50;7.00;;;;;;;;;;4981472;23;20833;-94
2023/10/22 07:17:17;;;;;;;83.07;8.02;;;;;;;;;;4974101;28;20047;-93
2023/10/22 07:19:43;;;;;;;82.82;9.57;;;;;;;;;;4958953;28;20034;-94
2023/10/22 07:22:10;;;;;;;89.53;9.65;;;;;;;;;;4931345;28;20052;-92
2023/10/22 07:24:45;;;;;;;45.38;5.10;;;;;;;;;;4976463;28;20105;-92
2023/10/22 07:27:18;;;;;;;52.30;6.00;;;;;;;;;;4952458;28;20078;-88
2023/10/22 07:29:51;;;;;;;43.17;5.00;;;;;;;;;;4871935;28;20046;-91
2023/10/22 07:32:18;;;;;;;90.20;7.07;;;;;;;;;;4985359;28;20093;-92
2023/10/22 07:34:45;;;;;;;52.83;7.78;;;;;;;;;;4984684;28;20038;-92
2023/10/22 07:37:14;;;;;;;62.50;6.13;;;;;;;;;;4979287;28;20042;-92
2023/10/22 07:39:41;;;;;;;56.85;6.18;;;;;;;;;;4970810;28;20159;-93
2023/10/22 07:42:09;;;;;;;127.32;12.73;;;;;;;;;;4954359;28;20116;-92
2023/10/22 07:44:43;;;;;;;72.20;7.63;;;;;;;;;;4962954;28;20476;-94
2023/10/22 07:47:15;;;;;;;48.45;6.93;;;;;;;;;;4962288;28;20522;-91
2023/10/22 07:49:42;;;;;;;88.65;10.55;;;;;;;;;;4976745;28;20050;-93
2023/10/22 07:52:09;;;;;;;49.55;7.60;;;;;;;;;;4971675;28;20046;-93
2023/10/22 07:54:36;;;;;;;56.00;7.50;;;;;;;;;;4964567;28;20039;-93
2023/10/22 08:00:18;;;;;;;1999.90;259.75;;;;;;;;;;4546203;28;21092;-89
2023/10/22 08:02:47;;;;;;;1999.90;476.67;;;;;;;;;;4533415;28;20956;-90
2023/10/22 08:05:13;;;;;;;1541.50;173.15;;;;;;;;;;4592855;28;20051;-90
2023/10/22 08:07:42;;;;;;;933.10;93.15;;;;;;;;;;4860171;28;20046;-90
2023/10/22 08:10:09;;;;;;;949.47;96.43;;;;;;;;;;4858513;28;20042;-89
2023/10/22 08:12:36;;;;;;;931.75;94.03;;;;;;;;;;4855929;28;20160;-89
2023/10/22 08:15:03;;;;;;;864.83;85.72;;;;;;;;;;4857356;28;20047;-89
2023/10/22 08:17:29;;;;;;;976.55;97.07;;;;;;;;;;4851853;28;20042;-88
2023/10/22 08:19:56;;;;;;;982.55;96.82;;;;;;;;;;4851510;28;20371;-87
2023/10/22 08:22:22;;;;;;;904.75;88.45;;;;;;;;;;4861290;28;20251;-89
2023/10/22 08:24:49;;;;;;;1026.60;102.32;;;;;;;;;;4851713;28;20035;-87
2023/10/22 08:27:15;;;;;;;928.63;90.82;;;;;;;;;;4861676;28;20054;-89
2023/10/22 08:29:42;;;;;;;970.10;94.50;;;;;;;;;;4860269;28;20030;-89
2023/10/22 08:32:09;;;;;;;938.47;91.45;;;;;;;;;;4854970;28;20043;-89
2023/10/22 08:34:35;;;;;;;948.10;92.85;;;;;;;;;;4861121;28;20054;-88
2023/10/22 08:37:03;;;;;;;1012.55;100.80;;;;;;;;;;4859481;28;20042;-89
2023/10/22 08:39:29;;;;;;;930.00;90.80;;;;;;;;;;4855206;28;20042;-89
2023/10/22 08:42:07;;;;;;;1093.05;110.43;;;;;;;;;;4857873;28;20043;-88
2023/10/22 08:44:39;;;;;;;932.25;91.55;;;;;;;;;;4858601;28;20053;-88
2023/10/22 08:47:07;;;;;;;1208.10;124.65;;;;;;;;;;4854130;28;20895;-90
2023/10/22 08:49:34;;;;;;;992.47;98.75;;;;;;;;;;4855694;28;20039;-87
2023/10/22 08:52:01;;;;;;;974.67;95.60;;;;;;;;;;4857104;28;20035;-89
2023/10/22 08:54:27;;;;;;;1031.22;102.22;;;;;;;;;;4855793;28;20047;-88
2023/10/22 08:56:54;;;;;;;778.92;72.57;;;;;;;;;;4859842;28;20042;-88
2023/10/22 08:59:21;;;;;;;977.97;96.15;;;;;;;;;;4854560;28;20039;-90
2023/10/22 09:01:48;;;;;;;1999.90;449.08;;;;;;;;;;4715931;28;21182;-86
2023/10/22 09:04:20;;;;;;;1999.90;405.98;;;;;;;;;;4564486;28;20062;-87
2023/10/22 09:06:51;;;;;;;1999.90;468.17;;;;;;;;;;4541984;28;20942;-84
2023/10/22 09:09:28;;;;;;;1999.90;435.80;;;;;;;;;;4532980;28;20312;-87
2023/10/22 09:11:56;;;;;;;1999.90;364.58;;;;;;;;;;4561002;28;20050;-86
2023/10/22 09:14:24;;;;;;;1999.90;352.35;;;;;;;;;;4598108;28;20069;-86
2023/10/22 09:16:51;;;;;;;1347.70;143.15;;;;;;;;;;4661906;28;20394;-86
2023/10/22 09:19:51;;;;;;;1191.63;123.35;;;;;;;;;;4804112;28;20065;-87
2023/10/22 09:22:22;;;;;;;1075.10;108.43;;;;;;;;;;4759148;29;20056;-86
2023/10/22 09:24:50;;;;;;;1999.90;281.50;;;;;;;;;;4608717;29;20668;-86
2023/10/22 09:27:24;;;;;;;1999.90;267.35;;;;;;;;;;4613646;29;20060;-87
2023/10/22 09:29:52;;;;;;;1999.90;269.60;;;;;;;;;;4599203;29;20308;-87
2023/10/22 09:32:20;;;;;;;1999.90;237.68;;;;;;;;;;4602083;29;20564;-88
2023/10/22 09:34:48;;;;;;;1999.90;240.60;;;;;;;;;;4630614;29;20066;-87
2023/10/22 09:37:15;;;;;;;1730.22;196.25;;;;;;;;;;4635840;29;20514;-89
2023/10/22 09:39:43;;;;;;;1999.90;239.20;;;;;;;;;;4610143;29;20351;-90
2023/10/22 09:42:14;;;;;;;1999.90;261.95;;;;;;;;;;4623493;29;20095;-88
2023/10/22 09:44:44;;;;;;;1877.35;216.10;;;;;;;;;;4641382;29;20083;-88
2023/10/22 09:47:28;;;;;;;1237.63;138.32;;;;;;;;;;4647342;29;20848;-90
2023/10/22 09:50:04;;;;;;;1999.90;261.65;;;;;;;;;;4670111;29;20646;-88
2023/10/22 09:52:35;;;;;;;1914.38;221.55;;;;;;;;;;4643697;29;20967;-89
2023/10/22 10:03:00;;;;;;;1999.90;296.58;;;;;;;;;;4245255;28;21202;-88
2023/10/22 10:05:33;;;;;;;1468.85;166.70;;;;;;;;;;4702745;28;20889;-90
2023/10/22 10:08:00;;;;;;;1999.90;439.13;;;;;;;;;;4681612;28;20042;-86
2023/10/22 10:10:28;;;;;;;1999.90;247.10;;;;;;;;;;4701597;28;20411;-83
2023/10/22 10:12:56;;;;;;;1004.30;115.20;;;;;;;;;;4765478;28;20679;-85
2023/10/22 10:15:33;;;;;;;1999.90;262.65;;;;;;;;;;4688849;28;20046;-82
2023/10/22 10:18:02;;;;;;;1999.90;262.83;;;;;;;;;;4685859;28;20043;-82
2023/10/22 10:20:35;;;;;;;1999.90;248.25;;;;;;;;;;4684016;28;20057;-82
2023/10/22 10:23:08;;;;;;;1999.90;298.63;;;;;;;;;;4668243;28;20054;-83
2023/10/22 10:25:38;;;;;;;1999.90;253.93;;;;;;;;;;4679134;28;21335;-83
2023/10/22 10:28:06;;;;;;;1999.90;267.42;;;;;;;;;;4685930;28;21193;-89
2023/10/22 10:30:33;;;;;;;1999.90;275.30;;;;;;;;;;4664440;28;20351;-86
2023/10/22 10:33:00;;;;;;;1999.90;289.90;;;;;;;;;;4689470;28;20049;-87
2023/10/22 10:35:47;;;;;;;1999.90;268.15;;;;;;;;;;4672324;28;20644;-87
2023/10/22 10:38:15;;;;;;;1999.90;267.10;;;;;;;;;;4673086;28;20257;-86
2023/10/22 10:40:43;;;;;;;1999.90;288.27;;;;;;;;;;4676163;28;20046;-87
2023/10/22 10:43:10;;;;;;;1999.90;284.95;;;;;;;;;;4667201;28;20381;-86
2023/10/22 10:45:41;;;;;;;1999.90;258.02;;;;;;;;;;4687909;28;20533;-86
2023/10/22 10:48:28;;;;;;;1999.90;282.05;;;;;;;;;;4687896;28;20054;-85
2023/10/22 10:51:13;;;;;;;1386.25;154.30;;;;;;;;;;4700220;28;20268;-86
2023/10/22 10:53:59;;;;;;;1999.90;314.98;;;;;;;;;;4609802;28;20041;-88
2023/10/22 10:56:46;;;;;;;1999.90;326.63;;;;;;;;;;4648172;28;20043;-89
2023/10/22 10:59:32;;;;;;;1999.90;372.65;;;;;;;;;;4591070;28;20582;-88
2023/10/22 11:02:11;;;;;;;1999.90;308.30;;;;;;;;;;4515356;28;20350;-88
2023/10/22 11:04:46;;;;;;;1999.90;288.45;;;;;;;;;;4645418;28;20093;-84
2023/10/22 11:07:14;;;;;;;1999.90;265.70;;;;;;;;;;4678340;28;20368;-88
2023/10/22 11:09:45;;;;;;;1999.90;336.75;;;;;;;;;;4632261;28;20470;-86
2023/10/22 11:12:13;;;;;;;1999.90;340.23;;;;;;;;;;4637759;28;21165;-83
2023/10/22 11:14:40;;;;;;;1999.90;351.23;;;;;;;;;;4622501;28;20078;-85
2023/10/22 11:17:07;;;;;;;1999.90;338.38;;;;;;;;;;4621214;28;20038;-87
2023/10/22 11:19:35;;;;;;;1999.90;329.83;;;;;;;;;;4628871;28;20068;-85
2023/10/22 11:22:02;;;;;;;1999.90;337.10;;;;;;;;;;4618035;28;20773;-85
2023/10/22 11:24:30;;;;;;;1999.90;331.40;;;;;;;;;;4616920;28;20659;-85
2023/10/22 11:26:59;;;;;;;1999.90;378.30;;;;;;;;;;4587716;28;20043;-84
2023/10/22 11:29:26;;;;;;;1999.90;338.23;;;;;;;;;;4632030;28;20043;-86
2023/10/22 11:31:54;;;;;;;1999.90;373.95;;;;;;;;;;4607120;28;20034;-86
2023/10/22 11:34:21;;;;;;;1999.90;317.02;;;;;;;;;;4618537;28;21431;-87
2023/10/22 11:36:55;;;;;;;1999.90;365.70;;;;;;;;;;4604670;28;20057;-87
2023/10/22 11:39:31;;;;;;;1999.90;367.98;;;;;;;;;;4585516;28;20057;-88
2023/10/22 11:42:10;;;;;;;1999.90;351.02;;;;;;;;;;4594037;28;21129;-87
2023/10/22 11:44:42;;;;;;;1999.90;376.85;;;;;;;;;;4588234;28;20544;-87
2023/10/22 11:47:24;;;;;;;1999.90;373.80;;;;;;;;;;4595507;28;20316;-88
2023/10/22 11:49:52;;;;;;;1999.90;389.02;;;;;;;;;;4576146;28;20047;-87
2023/10/22 11:52:42;;;;;;;143.75;19.08;;;;;;;;;;4701792;28;20121;-93
2023/10/22 11:55:21;;;;;;;1999.90;398.08;;;;;;;;;;4597045;28;20054;-90
2023/10/22 11:58:04;;;;;;;1999.90;412.13;;;;;;;;;;4599597;28;20816;-89
2023/10/22 12:00:31;;;;;;;1999.90;407.45;;;;;;;;;;4568000;28;20412;-89
2023/10/22 12:02:58;;;;;;;74.35;14.75;;;;;;;;;;4631140;28;20779;-86
2023/10/22 12:05:25;;;;;;;1999.90;394.98;;;;;;;;;;4720383;28;20436;-90
2023/10/22 12:07:52;;;;;;;1999.90;445.48;;;;;;;;;;4568864;28;21229;-82
2023/10/22 12:10:22;;;;;;;1999.90;387.27;;;;;;;;;;4562615;28;20500;-87
2023/10/22 12:12:49;;;;;;;1999.90;385.38;;;;;;;;;;4583471;28;20700;-83
2023/10/22 12:15:16;;;;;;;1999.90;449.08;;;;;;;;;;4512991;28;20065;-86
2023/10/22 12:17:43;;;;;;;1999.90;450.83;;;;;;;;;;4514317;28;20649;-86
2023/10/22 12:20:11;;;;;;;1999.90;398.05;;;;;;;;;;4566367;28;20663;-86
2023/10/22 12:22:38;;;;;;;1999.90;393.88;;;;;;;;;;4551146;28;20062;-87
2023/10/22 12:25:05;;;;;;;1999.90;445.15;;;;;;;;;;4540978;28;20753;-80
2023/10/22 12:27:32;;;;;;;1999.90;430.15;;;;;;;;;;4520003;28;21007;-82
2023/10/22 12:29:59;;;;;;;1999.90;431.85;;;;;;;;;;4544778;28;20039;-83
2023/10/22 12:32:26;;;;;;;1999.90;429.67;;;;;;;;;;4544138;28;20270;-82
2023/10/22 12:34:54;;;;;;;1999.90;447.90;;;;;;;;;;4532814;28;20677;-81
2023/10/22 12:37:20;;;;;;;1999.90;442.23;;;;;;;;;;4519815;28;21129;-81
2023/10/22 12:39:48;;;;;;;1999.90;465.10;;;;;;;;;;4510956;28;21630;-84
2023/10/22 12:42:15;;;;;;;1999.90;439.88;;;;;;;;;;4511337;28;20679;-82
2023/10/22 12:44:45;;;;;;;1999.90;441.30;;;;;;;;;;4512385;28;20693;-81
2023/10/22 12:47:12;;;;;;;1999.90;432.23;;;;;;;;;;4531745;28;20161;-82
2023/10/22 12:49:40;;;;;;;1999.90;436.80;;;;;;;;;;4520822;28;20735;-82
2023/10/22 12:52:08;;;;;;;1999.90;429.20;;;;;;;;;;4531978;28;20227;-84
2023/10/22 12:54:35;;;;;;;1999.90;424.13;;;;;;;;;;4533839;28;20674;-83
2023/10/22 12:57:07;;;;;;;1999.90;405.90;;;;;;;;;;4539112;28;20347;-83
2023/10/22 12:59:36;;;;;;;1999.90;436.25;;;;;;;;;;4522635;28;20137;-81
2023/10/22 13:02:03;;;;;;;1999.90;440.77;;;;;;;;;;4524080;28;20837;-84
2023/10/22 13:04:30;;;;;;;1999.90;417.95;;;;;;;;;;4538733;28;20623;-82
2023/10/22 13:06:58;;;;;;;1999.90;429.45;;;;;;;;;;4526024;28;20991;-83
2023/10/22 13:09:28;;;;;;;1999.90;525.90;;;;;;;;;;4500368;28;20642;-87
2023/10/22 13:11:55;;;;;;;412.80;36.60;;;;;;;;;;4847302;28;20061;-88
2023/10/22 13:14:22;;;;;;;382.17;30.92;;;;;;;;;;4903377;28;20057;-89
2023/10/22 13:16:48;;;;;;;291.35;25.25;;;;;;;;;;4919400;28;20945;-89
2023/10/22 13:19:15;;;;;;;106.20;10.82;;;;;;;;;;4930368;28;20105;-90
2023/10/22 13:21:43;;;;;;;23.60;3.78;;;;;;;;;;4947423;28;20051;-90
2023/10/22 13:24:10;;;;;;;13.02;3.83;;;;;;;;;;4958613;28;20034;-89
2023/10/22 13:26:36;;;;;;;9.20;3.17;;;;;;;;;;4966561;28;20136;-89
2023/10/22 13:29:06;;;;;;;35.13;5.55;;;;;;;;;;4939985;28;20544;-90
2023/10/22 13:31:33;;;;;;;25.00;5.43;;;;;;;;;;4944413;28;20043;-91
2023/10/22 13:34:00;;;;;;;324.73;29.52;;;;;;;;;;4920040;28;20042;-92
2023/10/22 13:36:26;;;;;;;267.60;24.38;;;;;;;;;;4904610;28;20145;-92
2023/10/22 13:38:53;;;;;;;116.00;12.32;;;;;;;;;;4920108;28;20552;-92
2023/10/22 13:41:20;;;;;;;508.90;46.53;;;;;;;;;;4895381;28;20050;-92
2023/10/22 13:43:47;;;;;;;66.93;9.68;;;;;;;;;;4906555;28;20050;-91
2023/10/22 13:46:13;;;;;;;198.63;19.25;;;;;;;;;;4948270;28;20049;-92
2023/10/22 13:48:43;;;;;;;144.63;14.95;;;;;;;;;;4919038;28;20035;-92
2023/10/22 13:51:10;;;;;;;323.40;31.50;;;;;;;;;;4909641;28;20834;-92
2023/10/22 13:53:36;;;;;;;489.85;45.80;;;;;;;;;;4905322;28;20039;-89
2023/10/22 13:56:03;;;;;;;715.30;70.25;;;;;;;;;;4886420;28;20050;-89
2023/10/22 13:58:30;;;;;;;525.03;50.83;;;;;;;;;;4910304;28;20936;-88
2023/10/22 14:00:56;;;;;;;627.63;59.72;;;;;;;;;;4877105;28;20054;-90
2023/10/22 14:03:23;;;;;;;786.15;78.80;;;;;;;;;;4877909;28;20043;-89
2023/10/22 14:05:53;;;;;;;689.40;66.78;;;;;;;;;;4859464;28;20050;-91
2023/10/22 14:08:20;;;;;;;689.83;67.53;;;;;;;;;;4873050;28;20109;-89
2023/10/22 14:10:49;;;;;;;893.33;92.00;;;;;;;;;;4875025;28;20108;-89
2023/10/22 14:13:17;;;;;;;770.50;74.50;;;;;;;;;;4874403;28;20572;-89
2023/10/22 14:15:47;;;;;;;862.58;86.60;;;;;;;;;;4849921;28;20062;-89
2023/10/22 14:18:14;;;;;;;782.78;77.25;;;;;;;;;;4875700;28;20050;-89
2023/10/22 14:20:41;;;;;;;862.95;86.43;;;;;;;;;;4871302;28;20913;-88
2023/10/22 14:23:08;;;;;;;473.00;43.75;;;;;;;;;;4892617;28;20048;-88
2023/10/22 14:25:35;;;;;;;486.17;43.63;;;;;;;;;;4914115;28;20268;-88
2023/10/22 14:28:03;;;;;;;637.47;61.28;;;;;;;;;;4892323;28;20042;-87